Nicole Leigh Reinauer — WCZ5696 — position and weather

sailwx.info

Track history (hours):
 
Tides and Currents Weather Stations Pressure Air Temp Water Temp Dewpoint Dewpoint Depression Visibility Wind Speed Wind Dir Waves Ship Positions

Nicole Leigh Reinauer

Owner: H A REINAUER INC, STATEN ISLAND, NY. More information available from US FCC via Universal Licensing System and Coast Guard Vessel Documentation Center.

Last reported at 2016-May-28 06:14 UTC. Time now 2016-May-31 10:02 UTC.
Position N 25°41' W 080°02'.

Length 167 m; draft 8.2 m.

Type: Tanker. MMSI: 366774330.

Date/timePositionNaut miles runAvg speedWind from/ knotsBaromVisibWave heightAir tempDewpointWater temp
2016-May-28 06:14N 25°41' W 080°02'6 9.5
2016-May-28 05:33N 25°48' W 080°03'10 9.5
2016-May-28 04:33N 25°57' W 080°03'9 8.8
2016-May-28 03:33N 26°06' W 080°06'1 1.5
2016-May-28 02:32N 26°06' W 080°07'0 0.0
2016-May-28 01:32N 26°06' W 080°07'0 0.0
2016-May-28 00:32N 26°06' W 080°07'0 0.0
2016-May-27 23:32N 26°06' W 080°07'0 0.0
2016-May-27 22:26N 26°06' W 080°07'0 0.0
2016-May-27 21:26N 26°06' W 080°07'0 0.0
2016-May-27 20:26N 26°06' W 080°07'0 0.0
2016-May-27 19:26N 26°06' W 080°07'0 0.0
2016-May-27 18:23N 26°06' W 080°07'0 0.0
2016-May-27 17:29N 26°06' W 080°07'0 0.0
2016-May-27 16:29N 26°06' W 080°07'0 0.0
2016-May-27 15:32N 26°06' W 080°07'0 0.0
2016-May-27 14:32N 26°06' W 080°07'0 0.0
2016-May-27 13:32N 26°06' W 080°07'0 0.0
2016-May-27 12:32N 26°06' W 080°07'0 0.0
2016-May-27 11:32N 26°06' W 080°07'0 0.0
2016-May-27 10:32N 26°06' W 080°07'0 0.0
2016-May-27 09:31N 26°06' W 080°07'0 0.0
2016-May-27 08:32N 26°06' W 080°07'0 0.0
2016-May-27 07:31N 26°06' W 080°07'0 0.0
2016-May-27 06:19N 26°06' W 080°07'0 0.0
2016-May-27 05:31N 26°06' W 080°07'0 0.0
2016-May-27 04:26N 26°06' W 080°07'0 0.0
2016-May-27 03:26N 26°06' W 080°07'0 0.1
2016-May-27 02:33N 26°06' W 080°07'5 5.2
2016-May-27 01:33N 26°09' W 080°03'1111.2
2016-May-27 00:33N 26°20' W 080°02'1110.6
2016-May-26 23:33N 26°31' W 080°00'10 9.6
2016-May-26 22:32N 26°41' W 079°59'9 9.2
2016-May-26 21:33N 26°50' W 079°58'9 9.4
2016-May-26 20:33N 26°59' W 079°59'  
2016-May-21 21:09N 31°46' W 080°24'25810.9
2016-May-20 21:29N 34°21' W 076°17'25211.0
2016-May-19 22:33N 38°22' W 074°42'1110.5
2016-May-19 21:33N 38°32' W 074°40'1111.2
2016-May-19 20:33N 38°43' W 074°38'1111.2
2016-May-19 19:33N 38°54' W 074°33'1211.5
2016-May-19 18:33N 39°04' W 074°26'1111.3
2016-May-19 17:34N 39°14' W 074°20'1111.3
2016-May-19 16:33N 39°24' W 074°13'1111.4
2016-May-19 15:33N 39°34' W 074°06'1111.5
2016-May-19 14:33N 39°44' W 073°59'1211.5
2016-May-19 13:33N 39°56' W 073°57'1611.6
2016-May-19 12:11N 40°12' W 073°55'1810.9
2016-May-19 10:33N 40°29' W 073°55'10 9.8
2016-May-19 09:34N 40°37' W 074°03'7 6.9
2016-May-19 08:33N 40°37' W 074°12'4 0.4
2016-May-18 23:24N 40°33' W 074°14'4 4.9
2016-May-18 22:33N 40°37' W 074°12'4 3.3
2016-May-18 21:28N 40°38' W 074°08'0 0.0
2016-May-18 20:31N 40°38' W 074°08'0 0.0
2016-May-18 19:25N 40°38' W 074°08'0 0.0
2016-May-18 18:31N 40°38' W 074°08'0 0.1
2016-May-18 17:32N 40°39' W 074°08'8 1.0
2016-May-18 09:33N 40°33' W 074°15'7 7.0
2016-May-18 08:33N 40°39' W 074°10'6 5.4
2016-May-18 07:31N 40°39' W 074°03'0 0.1
2016-May-18 06:31N 40°39' W 074°03'  
Track history (hours):
 
Tides and Currents Weather Stations Pressure Air Temp Water Temp Dewpoint Dewpoint Depression Visibility Wind Speed Wind Dir Waves Ship Positions

Nicole Leigh Reinauer

Owner: H A REINAUER INC, STATEN ISLAND, NY. More information available from US FCC via Universal Licensing System and Coast Guard Vessel Documentation Center.

Last reported at 2016-May-28 06:14 UTC. Time now 2016-May-31 10:02 UTC.
Position N 25°41' W 080°02'.

Length 167 m; draft 8.2 m.

Type: Tanker. MMSI: 366774330.

Date/timePositionNaut miles runAvg speedWind from/ knotsBaromVisibWave heightAir tempDewpointWater temp
2016-May-28 06:14N 25°41' W 080°02'6 9.5
2016-May-28 05:33N 25°48' W 080°03'10 9.5
2016-May-28 04:33N 25°57' W 080°03'9 8.8
2016-May-28 03:33N 26°06' W 080°06'1 1.5
2016-May-28 02:32N 26°06' W 080°07'0 0.0
2016-May-28 01:32N 26°06' W 080°07'0 0.0
2016-May-28 00:32N 26°06' W 080°07'0 0.0
2016-May-27 23:32N 26°06' W 080°07'0 0.0
2016-May-27 22:26N 26°06' W 080°07'0 0.0
2016-May-27 21:26N 26°06' W 080°07'0 0.0
2016-May-27 20:26N 26°06' W 080°07'0 0.0
2016-May-27 19:26N 26°06' W 080°07'0 0.0
2016-May-27 18:23N 26°06' W 080°07'0 0.0
2016-May-27 17:29N 26°06' W 080°07'0 0.0
2016-May-27 16:29N 26°06' W 080°07'0 0.0
2016-May-27 15:32N 26°06' W 080°07'0 0.0
2016-May-27 14:32N 26°06' W 080°07'0 0.0
2016-May-27 13:32N 26°06' W 080°07'0 0.0
2016-May-27 12:32N 26°06' W 080°07'0 0.0
2016-May-27 11:32N 26°06' W 080°07'0 0.0
2016-May-27 10:32N 26°06' W 080°07'0 0.0
2016-May-27 09:31N 26°06' W 080°07'0 0.0
2016-May-27 08:32N 26°06' W 080°07'0 0.0
2016-May-27 07:31N 26°06' W 080°07'0 0.0
2016-May-27 06:19N 26°06' W 080°07'0 0.0
2016-May-27 05:31N 26°06' W 080°07'0 0.0
2016-May-27 04:26N 26°06' W 080°07'0 0.0
2016-May-27 03:26N 26°06' W 080°07'0 0.1
2016-May-27 02:33N 26°06' W 080°07'5 5.2
2016-May-27 01:33N 26°09' W 080°03'1111.2
2016-May-27 00:33N 26°20' W 080°02'1110.6
2016-May-26 23:33N 26°31' W 080°00'10 9.6
2016-May-26 22:32N 26°41' W 079°59'9 9.2
2016-May-26 21:33N 26°50' W 079°58'9 9.4
2016-May-26 20:33N 26°59' W 079°59'  
2016-May-21 21:09N 31°46' W 080°24'25810.9
2016-May-20 21:29N 34°21' W 076°17'25211.0
2016-May-19 22:33N 38°22' W 074°42'1110.5
2016-May-19 21:33N 38°32' W 074°40'1111.2
2016-May-19 20:33N 38°43' W 074°38'1111.2
2016-May-19 19:33N 38°54' W 074°33'1211.5
2016-May-19 18:33N 39°04' W 074°26'1111.3
2016-May-19 17:34N 39°14' W 074°20'1111.3
2016-May-19 16:33N 39°24' W 074°13'1111.4
2016-May-19 15:33N 39°34' W 074°06'1111.5
2016-May-19 14:33N 39°44' W 073°59'1211.5
2016-May-19 13:33N 39°56' W 073°57'1611.6
2016-May-19 12:11N 40°12' W 073°55'1810.9
2016-May-19 10:33N 40°29' W 073°55'10 9.8
2016-May-19 09:34N 40°37' W 074°03'7 6.9
2016-May-19 08:33N 40°37' W 074°12'4 0.4
2016-May-18 23:24N 40°33' W 074°14'4 4.9
2016-May-18 22:33N 40°37' W 074°12'4 3.3
2016-May-18 21:28N 40°38' W 074°08'0 0.0
2016-May-18 20:31N 40°38' W 074°08'0 0.0
2016-May-18 19:25N 40°38' W 074°08'0 0.0
2016-May-18 18:31N 40°38' W 074°08'0 0.1
2016-May-18 17:32N 40°39' W 074°08'8 1.0
2016-May-18 09:33N 40°33' W 074°15'7 7.0
2016-May-18 08:33N 40°39' W 074°10'6 5.4
2016-May-18 07:31N 40°39' W 074°03'0 0.1
2016-May-18 06:31N 40°39' W 074°03'  

Dump ship's entire track history